Impacts METAR Board
IDs:

KJFK - New York/Kennedy Int, NY, US

Updated at: 2200 UTC 25 May 2018
Potential Impact None Slight Moderate High
Time 25/10Z 25/11Z 25/12Z 25/13Z 25/14Z 25/15Z 25/16Z 25/17Z 25/18Z 25/19Z 25/20Z 25/21Z 25/22Z
Temp61 63 65 68 72 76 80 81 77 77 76 75 74
Dewpt57 58 57 59 59 58 58 58 62 62 62 63 62
Altim30.07 30.07 30.06 30.05 30.03 30.01 29.99 29.96 29.94 29.93 29.90 29.87 29.85
VIS10 10 10 10 10 10 10 10 10 10 10 10 10
CIG-- -- -- -- -- -- -- 250 250 250 250 250 250
CoverFEWFEWFEWCLRFEWSCTSCTBKNBKNBKNBKNBKNBKN
FltCatVFRVFRVFRVFRVFRVFRVFRVFRVFRVFRVFRVFRVFR
WX--------------------------
WDir210210220230230230230230180180190180190
WSpd8 7 14 13 14 14 15 15 12 14 15 12 13
WGst-- -- -- -- -- -- -- -- -- -- -- -- --
Raw hourly METARs
KJFK 250951Z 21008KT 10SM FEW250 16/14 A3007 RMK AO2 SLP181 T01610139
KJFK 251051Z 21007KT 10SM FEW250 17/14 A3007 RMK AO2 SLP181 T01720144
KJFK 251151Z 22014KT 10SM FEW250 18/14 A3006 RMK AO2 SLP179 T01830139 10183 20156 50000
KJFK 251251Z 23013KT 10SM CLR 20/15 A3005 RMK AO2 SLP174 T02000150
KJFK 251351Z 23014KT 10SM FEW250 22/15 A3003 RMK AO2 SLP170 T02220150
KJFK 251451Z 23014KT 10SM SCT250 24/14 A3001 RMK AO2 SLP161 T02440144 58018
KJFK 251551Z 23015KT 10SM SCT250 27/14 A2999 RMK AO2 SLP155 T02670144
KJFK 251651Z 23015KT 10SM BKN250 27/14 A2996 RMK AO2 SLP144 T02720144
KJFK 251751Z 18012KT 10SM BKN250 25/17 A2994 RMK AO2 SLP139 T02500167 10278 20183 56022
KJFK 251851Z 18014KT 10SM BKN250 25/17 A2993 RMK AO2 SLP134 T02500167
KJFK 251951Z 19015KT 10SM FEW065 BKN250 24/17 A2990 RMK AO2 SLP124 T02440167
KJFK 252051Z 18012KT 10SM FEW065 BKN250 24/17 A2987 RMK AO2 SLP114 T02390172 58025
KJFK 252151Z 19013KT 10SM FEW065 BKN250 23/17 A2985 RMK AO2 SLP109 T02330167



Page loaded:  22:34 UTC  |   03:34 PM Pacific  |   04:34 PM Mountain  |   05:34 PM Central  |   06:34 PM Eastern

 

ADVISORIES

FORECASTS

FORECASTS

OBSERVATIONS

USER TOOLS

ABOUT US